Thunder radar more information blitzortung!


Radar de pluja more information rain snow radar


Visita la nostra xarxa de llocs de meteo:

Template documentation
and downloads

And another site



No particular awareness of the weather is required.    There are no Weather-warnings

Pagina Historial Weather Underground text

Diari Resum Marc 19, 2016 Unitats:  Mètric    Imperial   Tant
« Previous Dia
SegĂźent Dia »
Diari Setmana Mensual Anual Personalitzada
  Maxima: Minima: Media:
Temperatura: -17.8 °C -13.1 °C -12.1 °C
Punt de rosada: -17.8 °C -14.4 °C -13.4 °C
Humitat: Humidity % 81 % 85 %
Wind Speed: 0 km/h 0 km/h 7.7 km/h
RĂ fegues de vent: 0 km/h - -
Vent:- - ENE
Pression baro: 0 hPa 34327.3 hPa -
Precipitacions: 0 mm    
Historical Graphs
 
 
Dades de taula per Marc 19, 2016
Temps Temperatura Punt de rosada Pression baro Vent Wind Speed RĂ fegues de vent Humitat Rainfall Rate (Hourly)
-17.8 °C -17.8 °C 0 hPa Calm     Humidity % 0 mm
00:30 -13.1 °C -14.4 °C 34428.8 hPa Calm     85 % 0 mm
00:40 -13.1 °C -14.4 °C 34428.8 hPa Calm   5.1 km/h 85 % 0 mm
00:50 -13.1 °C -14.4 °C 34428.8 hPa Calm   2.6 km/h 85 % 0 mm
01:00 -13.1 °C -14.4 °C 34462.7 hPa Calm   2.6 km/h 85 % 0 mm
01:10 -13.1 °C -14.4 °C 34462.7 hPa Calm   2.6 km/h 85 % 0 mm
01:20 -13.1 °C -14.3 °C 34462.7 hPa North 2.6 km/h 5.1 km/h 86 % 0 mm
01:30 -13.1 °C -14.3 °C 34462.7 hPa NNE 5.1 km/h 5.1 km/h 86 % 0 mm
01:40 -13.1 °C -14.3 °C 34462.7 hPa NE 5.1 km/h 5.1 km/h 86 % 0 mm
01:50 -13 °C -14.2 °C 34462.7 hPa NE 5.1 km/h 7.7 km/h 86 % 0 mm
02:00 -13 °C -14.2 °C 34462.7 hPa Calm   5.1 km/h 86 % 0 mm
02:10 -12.9 °C -14.1 °C 34462.7 hPa Calm   2.6 km/h 87 % 0 mm
02:20 -12.9 °C -14.1 °C 34462.7 hPa ENE 2.6 km/h 2.6 km/h 87 % 0 mm
02:30 -12.9 °C -14.2 °C 34462.7 hPa ENE 2.6 km/h 5.1 km/h 86 % 0 mm
02:40 -12.9 °C -14.1 °C 34462.7 hPa NE 5.1 km/h 5.1 km/h 86 % 0 mm
02:50 -12.9 °C -14.1 °C 34462.7 hPa Calm   5.1 km/h 86 % 0 mm
03:00 -12.8 °C -14.1 °C 34462.7 hPa NNE 2.6 km/h 5.1 km/h 86 % 0 mm
03:10 -12.8 °C -14 °C 34462.7 hPa NE 2.6 km/h 2.6 km/h 86 % 0 mm
03:20 -12.8 °C -14 °C 34462.7 hPa Calm   5.1 km/h 86 % 0 mm
03:30 -12.8 °C -14 °C 34428.8 hPa NE 2.6 km/h 5.1 km/h 86 % 0 mm
03:40 -12.8 °C -14 °C 34428.8 hPa NNE 2.6 km/h 5.1 km/h 86 % 0 mm
03:50 -12.8 °C -14 °C 34428.8 hPa Calm   5.1 km/h 86 % 0 mm
04:00 -12.7 °C -13.9 °C 34462.7 hPa NE 2.6 km/h 7.7 km/h 86 % 0 mm
04:10 -12.7 °C -13.9 °C 34462.7 hPa NE 2.6 km/h 5.1 km/h 86 % 0 mm
04:20 -12.7 °C -13.9 °C 34462.7 hPa NE 2.6 km/h 2.6 km/h 86 % 0 mm
10:26 -12.7 °C -13.9 °C 34462.7 hPa NNE 3.1 km/h 3.7 km/h 86 % 0 mm
10:28 -12.7 °C -13.9 °C 34462.7 hPa Calm     86 % 0 mm
10:38 -12.6 °C -13.7 °C 34462.7 hPa Calm     87 % 0 mm
10:43 -12.6 °C -13.7 °C 34462.7 hPa NE 3.7 km/h 3.7 km/h 87 % 0 mm
10:48 -12.5 °C -13.7 °C 34462.7 hPa NE 3.1 km/h 3.1 km/h 87 % 0 mm
10:53 -12.4 °C -13.6 °C 34462.7 hPa Calm     87 % 0 mm
11:08 -12.4 °C -13.5 °C 34428.8 hPa NNE 6.3 km/h 6.3 km/h 87 % 0 mm
11:13 -12.3 °C -13.6 °C 34428.8 hPa ENE 6 km/h 6 km/h 86 % 0 mm
11:18 -12.3 °C -13.4 °C 34428.8 hPa NE 6 km/h 6 km/h 87 % 0 mm
11:23 -12.2 °C -13.4 °C 34428.8 hPa ENE 6 km/h 6 km/h 87 % 0 mm
11:28 -12.2 °C -13.4 °C 34428.8 hPa NNE 7.6 km/h 7.6 km/h 86 % 0 mm
11:33 -12.2 °C -13.4 °C 34428.8 hPa NE 9 km/h 9 km/h 86 % 0 mm
11:38 -12.2 °C -13.4 °C 34428.8 hPa NE 6 km/h 6 km/h 86 % 0 mm
11:43 -12.2 °C -13.4 °C 34462.7 hPa ENE 6.8 km/h 6.8 km/h 86 % 0 mm
11:48 -12.2 °C -13.4 °C 34462.7 hPa NNE 6 km/h 6 km/h 86 % 0 mm
11:53 -12.2 °C -13.4 °C 34462.7 hPa NNE 6 km/h 6 km/h 86 % 0 mm
11:58 -12.2 °C -13.4 °C 34496.6 hPa NNE 6 km/h 6 km/h 86 % 0 mm
12:03 -12.2 °C -13.4 °C 34496.6 hPa ENE 6 km/h 6 km/h 86 % 0 mm
12:08 -12.2 °C -13.4 °C 34496.6 hPa ENE 9 km/h 9 km/h 86 % 0 mm
12:13 -12.2 °C -13.4 °C 34462.7 hPa NE 6.3 km/h 6.3 km/h 86 % 0 mm
12:23 -12.3 °C -13.4 °C 34462.7 hPa ENE 6 km/h 6 km/h 87 % 0 mm
12:28 -12.3 °C -13.4 °C 34462.7 hPa NNE 9 km/h 9 km/h 87 % 0 mm
12:33 -12.3 °C -13.4 °C 34462.7 hPa ENE 6 km/h 6 km/h 87 % 0 mm
12:38 -12.3 °C -13.3 °C 34462.7 hPa ENE 6 km/h 6 km/h 88 % 0 mm
12:43 -12.3 °C -13.3 °C 34462.7 hPa ENE 9 km/h 9 km/h 88 % 0 mm
12:48 -12.2 °C -13.3 °C 34462.7 hPa NE 6 km/h 6 km/h 88 % 0 mm
12:53 -12.2 °C -13.3 °C 34462.7 hPa NE 3.1 km/h 4.2 km/h 88 % 0 mm
12:58 -12.2 °C -13.3 °C 34462.7 hPa NNE 6 km/h 6 km/h 88 % 0 mm
13:03 -12.3 °C -13.3 °C 34462.7 hPa NNE 9 km/h 9 km/h 88 % 0 mm
13:08 -12.3 °C -13.3 °C 34462.7 hPa NE 11.9 km/h 11.9 km/h 88 % 0 mm
13:13 -12.3 °C -13.4 °C 34462.7 hPa ENE 6 km/h 6.3 km/h 88 % 0 mm
13:18 -12.3 °C -13.4 °C 34462.7 hPa NNE 6 km/h 6 km/h 88 % 0 mm
13:33 -12.3 °C -13.3 °C 34462.7 hPa NE 6 km/h 6 km/h 88 % 0 mm
13:38 -12.3 °C -13.4 °C 34462.7 hPa NE 6 km/h 6 km/h 88 % 0 mm
13:43 -12.3 °C -13.3 °C 34462.7 hPa Calm     89 % 0 mm
13:48 -12.3 °C -13.4 °C 34462.7 hPa NNE 6 km/h   88 % 0 mm
13:53 -12.3 °C -13.3 °C 34462.7 hPa ENE 6 km/h 6 km/h 89 % 0 mm
13:58 -12.3 °C -13.3 °C 34462.7 hPa NNE 6 km/h 6 km/h 89 % 0 mm
14:03 -12.3 °C -13.2 °C 34462.7 hPa ENE 9.8 km/h 9.8 km/h 89 % 0 mm
14:08 -12.3 °C -13.2 °C 34462.7 hPa NE 11.9 km/h 11.9 km/h 89 % 0 mm
14:13 -12.3 °C -13.2 °C 34428.8 hPa NNE 9.3 km/h 9.3 km/h 89 % 0 mm
14:18 -12.3 °C -13.2 °C 34428.8 hPa NNE 9 km/h 9 km/h 89 % 0 mm
14:23 -12.2 °C -13.2 °C 34428.8 hPa NNE 9.3 km/h 9.3 km/h 89 % 0 mm
14:28 -12.2 °C -13.1 °C 34428.8 hPa NNE 11.9 km/h 11.9 km/h 89 % 0 mm
14:33 -12.1 °C -13.1 °C 34428.8 hPa NNE 9 km/h 9 km/h 89 % 0 mm
14:38 -12.1 °C -12.9 °C 34395 hPa NE 11.9 km/h 11.9 km/h 90 % 0 mm
14:43 -12 °C -12.9 °C 34395 hPa NE 9 km/h 9 km/h 89 % 0 mm
14:48 -11.9 °C -12.8 °C 34395 hPa NNE 10.3 km/h 10.3 km/h 89 % 0 mm
14:53 -11.8 °C -12.7 °C 34395 hPa NNE 12.7 km/h 12.7 km/h 89 % 0 mm
14:58 -11.7 °C -12.7 °C 34395 hPa ENE 12.7 km/h 12.7 km/h 89 % 0 mm
15:03 -11.7 °C -12.6 °C 34395 hPa NE 11.9 km/h 11.9 km/h 89 % 0 mm
15:08 -11.5 °C -12.4 °C 34395 hPa ESE 14.5 km/h 14.5 km/h 89 % 0 mm
15:13 -11.4 °C -12.5 °C 34395 hPa ENE 15 km/h 15 km/h 88 % 0 mm
15:18 -11.4 °C -12.4 °C 34395 hPa NE 11.9 km/h 11.9 km/h 88 % 0 mm
15:23 -11.4 °C -12.4 °C 34395 hPa East 6.8 km/h 6.8 km/h 88 % 0 mm
15:28 -11.3 °C -12.4 °C 34395 hPa ESE 9 km/h 9.3 km/h 88 % 0 mm
15:38 -11.2 °C -12.4 °C 34395 hPa ENE 6 km/h 6 km/h 87 % 0 mm
15:43 -11.1 °C -12.3 °C 34395 hPa ESE 9 km/h 9 km/h 87 % 0 mm
15:48 -11.1 °C -12.3 °C 34395 hPa ESE 9.3 km/h 9.3 km/h 86 % 0 mm
15:53 -11.1 °C -12.4 °C 34395 hPa ESE 11.9 km/h 11.9 km/h 85 % 0 mm
15:58 -11.1 °C -12.4 °C 34361.1 hPa NE 6 km/h 6 km/h 85 % 0 mm
16:08 -10.9 °C -12.4 °C 34361.1 hPa NE 11.9 km/h 11.9 km/h 84 % 0 mm
16:13 -11 °C -12.4 °C 34395 hPa ENE 11.9 km/h 11.9 km/h 84 % 0 mm
16:18 -11.1 °C -12.5 °C 34395 hPa NE 11.9 km/h 11.9 km/h 84 % 0 mm
16:23 -11.1 °C -12.6 °C 34395 hPa ENE 9 km/h 9 km/h 84 % 0 mm
16:28 -11.1 °C -12.6 °C 34395 hPa ENE 15 km/h 15 km/h 84 % 0 mm
16:33 -11.2 °C -12.6 °C 34395 hPa East 12.7 km/h 12.7 km/h 84 % 0 mm
16:43 -11.1 °C -12.6 °C 34395 hPa East 9 km/h 9 km/h 84 % 0 mm
16:48 -11 °C -12.4 °C 34395 hPa ESE 6 km/h 6 km/h 84 % 0 mm
16:53 -11 °C -12.4 °C 34395 hPa NNE 15 km/h 15 km/h 84 % 0 mm
16:58 -11 °C -12.4 °C 34395 hPa ENE 15 km/h 15 km/h 84 % 0 mm
17:03 -11.1 °C -12.5 °C 34395 hPa ENE 15 km/h 15 km/h 84 % 0 mm
17:08 -11.1 °C -12.7 °C 34395 hPa ENE 11.9 km/h 11.9 km/h 83 % 0 mm
17:13 -11.1 °C -12.7 °C 34361.1 hPa ENE 9 km/h 9 km/h 83 % 0 mm
17:18 -11.1 °C -12.6 °C 34361.1 hPa East 9 km/h 9 km/h 84 % 0 mm
17:23 -11.1 °C -12.6 °C 34361.1 hPa East 17.9 km/h 17.9 km/h 84 % 0 mm
17:28 -11.1 °C -12.6 °C 34395 hPa East 15.3 km/h 15.3 km/h 84 % 0 mm
17:33 -11.1 °C -12.6 °C 34395 hPa South 9 km/h 9 km/h 84 % 0 mm
17:38 -11.1 °C -12.6 °C 34395 hPa East 15 km/h 15 km/h 84 % 0 mm
17:43 -11.1 °C -12.7 °C 34395 hPa ENE 14 km/h 14 km/h 83 % 0 mm
17:48 -11.1 °C -12.7 °C 34395 hPa ENE 11.9 km/h 11.9 km/h 83 % 0 mm
17:53 -11.2 °C -12.7 °C 34395 hPa East 9 km/h 9 km/h 83 % 0 mm
17:58 -11.2 °C -12.9 °C 34395 hPa ESE 11.9 km/h 11.9 km/h 82 % 0 mm
18:03 -11.2 °C -12.9 °C 34395 hPa NNE 15 km/h 15 km/h 82 % 0 mm
18:08 -11.3 °C -12.9 °C 34395 hPa ESE 15 km/h 15 km/h 82 % 0 mm
18:13 -11.3 °C -12.9 °C 34395 hPa ENE 11.9 km/h 11.9 km/h 82 % 0 mm
18:18 -11.3 °C -13.1 °C 34395 hPa East 6 km/h 6 km/h 81 % 0 mm
18:23 -11.3 °C -13.1 °C 34395 hPa ENE 9.8 km/h 9.8 km/h 81 % 0 mm
18:28 -11.4 °C -13.2 °C 34395 hPa ESE 9 km/h 9 km/h 81 % 0 mm
18:33 -11.4 °C -13.2 °C 34395 hPa ENE 17.9 km/h 17.9 km/h 81 % 0 mm
18:38 -11.4 °C -13.2 °C 34395 hPa East 6 km/h 6 km/h 81 % 0 mm
18:43 -11.4 °C -13.2 °C 34361.1 hPa ESE 9 km/h 9 km/h 81 % 0 mm
18:48 -11.4 °C -13.2 °C 34361.1 hPa ENE 15 km/h 15 km/h 81 % 0 mm
18:53 -11.4 °C -13.2 °C 34395 hPa ESE 11.9 km/h 11.9 km/h 81 % 0 mm
18:58 -11.4 °C -13.2 °C 34395 hPa East 9 km/h 9 km/h 81 % 0 mm
19:03 -11.5 °C -13.2 °C 34395 hPa ENE 9 km/h 9 km/h 81 % 0 mm
19:08 -11.5 °C -13.2 °C 34395 hPa ESE 6 km/h 6 km/h 82 % 0 mm
19:13 -11.5 °C -13.2 °C 34395 hPa ESE 15.6 km/h 15.6 km/h 82 % 0 mm
19:18 -11.5 °C -13.2 °C 34395 hPa ENE 12.2 km/h 12.2 km/h 82 % 0 mm
19:23 -11.6 °C -13.2 °C 34395 hPa ENE 9.3 km/h 9.3 km/h 82 % 0 mm
19:28 -11.6 °C -13.2 °C 34395 hPa NE 11.9 km/h 11.9 km/h 82 % 0 mm
19:33 -11.6 °C -13.2 °C 34395 hPa ESE 15 km/h 15 km/h 82 % 0 mm
19:38 -11.7 °C -13.3 °C 34395 hPa ENE 6.3 km/h 6.3 km/h 82 % 0 mm
19:43 -11.7 °C -13.4 °C 34395 hPa East 17.9 km/h 17.9 km/h 82 % 0 mm
19:48 -11.8 °C -13.4 °C 34395 hPa East 9 km/h 9 km/h 82 % 0 mm
19:53 -11.8 °C -13.4 °C 34395 hPa ENE 11.9 km/h 11.9 km/h 82 % 0 mm
19:58 -11.8 °C -13.4 °C 34395 hPa ESE 19.2 km/h 19.2 km/h 82 % 0 mm
20:03 -11.8 °C -13.4 °C 34395 hPa ENE 9 km/h 9 km/h 82 % 0 mm
20:08 -11.9 °C -13.5 °C 34395 hPa NNE 9 km/h 9 km/h 82 % 0 mm
20:13 -11.9 °C -13.5 °C 34395 hPa NE 9 km/h 9 km/h 82 % 0 mm
20:18 -11.9 °C -13.5 °C 34395 hPa East 6 km/h 6 km/h 83 % 0 mm
20:28 -12 °C -13.6 °C 34428.8 hPa NNE 3.1 km/h   83 % 0 mm
20:33 -12 °C -13.6 °C 34428.8 hPa ENE 3.7 km/h 3.7 km/h 83 % 0 mm
20:38 -12.1 °C -13.6 °C 34428.8 hPa NE 6.3 km/h 6.3 km/h 83 % 0 mm
20:40 -12.6 °C -13.7 °C 34395 hPa Calm     87 % 0 mm
20:43 -12.1 °C -13.6 °C 34428.8 hPa NE 9 km/h 9 km/h 83 % 0 mm
20:48 -12.1 °C -13.6 °C 34428.8 hPa NE 11.9 km/h 11.9 km/h 83 % 0 mm
20:50 -12.6 °C -13.8 °C 34395 hPa ENE 2.6 km/h 5.1 km/h 87 % 0 mm
20:58 -12 °C -13.6 °C 34428.8 hPa NNE 9 km/h 9 km/h 83 % 0 mm
21:00 -12.7 °C -13.8 °C 34395 hPa NE 5.1 km/h 10.3 km/h 87 % 0 mm
21:03 -12 °C -13.6 °C 34428.8 hPa NNE 11.9 km/h 11.9 km/h 83 % 0 mm
21:08 -12 °C -13.6 °C 34462.7 hPa ENE 9 km/h 9 km/h 83 % 0 mm
21:10 -12.7 °C -13.7 °C 34361.1 hPa NNE 5.1 km/h 7.7 km/h 88 % 0 mm
21:13 -12 °C -13.6 °C 34462.7 hPa NE 11.9 km/h 11.9 km/h 83 % 0 mm
21:18 -12.1 °C -13.6 °C 34462.7 hPa NNE 11.9 km/h 11.9 km/h 83 % 0 mm
21:20 -12.7 °C -13.8 °C 34361.1 hPa NNE 5.1 km/h 7.7 km/h 88 % 0 mm
21:23 -12.1 °C -13.6 °C 34428.8 hPa NE 9 km/h 9 km/h 83 % 0 mm
21:28 -12.1 °C -13.6 °C 34428.8 hPa NNE 9.8 km/h 9.8 km/h 83 % 0 mm
21:30 -12.7 °C -13.8 °C 34361.1 hPa NE 5.1 km/h 10.3 km/h 88 % 0 mm
21:33 -12.1 °C -13.6 °C 34428.8 hPa NNE 9.3 km/h 9.3 km/h 83 % 25.4 mm
21:38 -12 °C -13.6 °C 34428.8 hPa NNE 9 km/h 9 km/h 83 % 25.4 mm
21:40 -12.8 °C -13.7 °C 34361.1 hPa NNE 5.1 km/h 10.3 km/h 89 % 0 mm
21:43 -12 °C -13.6 °C 34428.8 hPa ENE 9 km/h 9 km/h 83 % 25.4 mm
21:48 -12 °C -13.6 °C 34428.8 hPa NNE 9 km/h 9 km/h 83 % 25.4 mm
21:50 -12.8 °C -13.7 °C 34361.1 hPa Calm   2.6 km/h 89 % 0 mm
21:53 -12 °C -13.6 °C 34428.8 hPa NNE 9 km/h 9 km/h 83 % 25.4 mm
21:58 -12 °C -13.6 °C 34428.8 hPa NNE 11.9 km/h 11.9 km/h 83 % 25.4 mm
22:00 -12.8 °C -13.7 °C 34361.1 hPa NNE 5.1 km/h 7.7 km/h 89 % 0 mm
22:03 -12 °C -13.6 °C 34428.8 hPa NE 11.9 km/h 11.9 km/h 83 % 25.4 mm
22:08 -12 °C -13.6 °C 34428.8 hPa ENE 15 km/h 15 km/h 83 % 25.4 mm
22:13 -12 °C -13.6 °C 34428.8 hPa North 11.9 km/h 11.9 km/h 83 % 25.4 mm
22:18 -12 °C -13.6 °C 34428.8 hPa ENE 11.9 km/h 11.9 km/h 83 % 25.4 mm
22:20 -12.7 °C -13.6 °C 34327.3 hPa Calm     90 % 0 mm
22:23 -12 °C -13.6 °C 34428.8 hPa NNE 11.9 km/h 11.9 km/h 83 % 25.4 mm
22:28 -12 °C -13.6 °C 34428.8 hPa ENE 6 km/h 6.8 km/h 83 % 25.4 mm
22:30 -12.7 °C -13.7 °C 34361.1 hPa NW 2.6 km/h 5.1 km/h 89 % 0 mm
22:33 -12 °C -13.6 °C 34428.8 hPa NNE 10.3 km/h 10.3 km/h 83 % 0 mm
22:38 -12 °C -13.6 °C 34428.8 hPa NE 11.1 km/h 11.1 km/h 83 % 0 mm
22:39 -12 °C -13.6 °C 34428.8 hPa NNE 8 km/h 8 km/h 83 % 0 mm
22:40 -12.7 °C -13.6 °C 34361.1 hPa Calm   5.1 km/h 90 % 0 mm
22:44 -12 °C -13.6 °C 34428.8 hPa NNE 9 km/h 9 km/h 83 % 0 mm
22:49 -12 °C -13.6 °C 34428.8 hPa ENE 9 km/h 9 km/h 83 % 0 mm
22:50 -12.8 °C -13.7 °C 34361.1 hPa West 2.6 km/h 10.3 km/h 89 % 0 mm
22:54 -12 °C -13.6 °C 34428.8 hPa East 8.5 km/h 8.5 km/h 83 % 0 mm
23:00 -12.8 °C -13.7 °C 34361.1 hPa Calm   2.6 km/h 89 % 0 mm
23:04 -12.1 °C -13.6 °C 34428.8 hPa ENE 6 km/h 6.3 km/h 83 % 0 mm
23:09 -12.1 °C -13.6 °C 34428.8 hPa ENE 6.3 km/h 7.6 km/h 83 % 0 mm
23:10 -12.9 °C -13.8 °C 34361.1 hPa NNE 7.7 km/h 15.6 km/h 89 % 0 mm
23:14 -12.1 °C -13.7 °C 34428.8 hPa NNE 9 km/h 9 km/h 83 % 0 mm
23:19 -12.1 °C -13.7 °C 34428.8 hPa ENE 9 km/h 9 km/h 83 % 0 mm
23:20 -13 °C -13.9 °C 34361.1 hPa NNE 5.1 km/h 10.3 km/h 89 % 0 mm
23:24 -12.1 °C -13.7 °C 34395 hPa NE 9 km/h 9 km/h 83 % 0 mm
23:29 -12.1 °C -13.7 °C 34395 hPa NE 11.9 km/h 11.9 km/h 83 % 0 mm
23:30 -13 °C -13.9 °C 34361.1 hPa NE 2.6 km/h 10.3 km/h 89 % 0 mm
23:34 -12.1 °C -13.7 °C 34395 hPa ENE 15 km/h 15 km/h 83 % 0 mm
23:39 -12.2 °C -13.7 °C 34395 hPa ENE 9 km/h 9 km/h 83 % 0 mm
23:40 -13.1 °C -14 °C 34361.1 hPa NNE 5.1 km/h 5.1 km/h 89 % 0 mm
23:44 -12.2 °C -13.7 °C 34395 hPa ESE 6 km/h 6 km/h 83 % 0 mm
23:50 -13.1 °C -14 °C 34361.1 hPa NNE 2.6 km/h 7.7 km/h 89 % 0 mm
Meteo Sesrovires
Elogis d' Weather Underground - 3.5 mb

Guio original per  Jim McMurry - jmcmurry@mwt.net Adaptat per a la plantilla per  Wim van der Kuil - Leuven-Template.eu

Trobareu la nostra informacio del temps tambe a:

Weather Underground

AWEKAS